Scf Baltica — A8IA5 — position and weather

sailwx.info

Track history (hours):
 
Tides and Currents Weather Stations Pressure Air Temp Water Temp Dewpoint Dewpoint Depression Visibility Wind Speed Wind Dir Waves Ship Positions

Scf Baltica

Last reported at 2017-Oct-17 07:31 UTC. Time now 2017-Oct-17 07:53 UTC.
Position N 60°03' E 028°27'.

Length 250 m; draft 9 m.

Type: Ship. MMSI: 636012813.

Date/timePositionNaut miles runAvg speedWind from/ knotsBaromVisibWave heightAir tempDewpointWater temp
2017-Oct-17 07:31N 60°03' E 028°27'4 7.8
2017-Oct-17 07:00N 60°05' E 028°20'5 9.4
2017-Oct-17 06:31N 60°08' E 028°12'5 9.7
2017-Oct-17 06:00N 60°09' E 028°03'5 9.8
2017-Oct-17 05:30N 60°10' E 027°53'4 8.9
2017-Oct-17 05:00N 60°10' E 027°44'5 9.4
2017-Oct-17 04:30N 60°08' E 027°36'5 9.3
2017-Oct-17 04:01N 60°05' E 027°28'5 9.3
2017-Oct-17 03:30N 60°03' E 027°20'5 9.4
2017-Oct-17 03:00N 60°00' E 027°12'5 9.2
2017-Oct-17 02:30N 59°58' E 027°04'4 8.9
2017-Oct-17 02:00N 59°58' E 026°55'5 9.4
2017-Oct-17 01:30N 59°59' E 026°46'5 9.1
2017-Oct-17 01:01N 59°59' E 026°37'5 9.2
2017-Oct-17 00:31N 59°58' E 026°28'5 9.2
2017-Oct-17 00:00N 59°57' E 026°19'35 9.3
2017-Oct-16 20:16N 59°48' E 025°12'3 9.5
2017-Oct-16 20:00N 59°48' E 025°07'4 9.1
2017-Oct-16 19:30N 59°46' E 024°59'5 9.1
2017-Oct-16 19:01N 59°43' E 024°52'4 8.7
2017-Oct-16 18:31N 59°39' E 024°49'4 7.2
2017-Oct-16 18:00N 59°35' E 024°49'0 0.8
2017-Oct-16 17:29N 59°35' E 024°49'0 0.1
2017-Oct-16 16:59N 59°35' E 024°49'0 0.1
2017-Oct-16 16:29N 59°35' E 024°49'0 0.1
2017-Oct-16 15:59N 59°35' E 024°49'0 0.1
2017-Oct-16 15:29N 59°35' E 024°49'0 0.0
2017-Oct-16 14:59N 59°35' E 024°49'0 0.0
2017-Oct-16 13:59N 59°35' E 024°49'0 0.0
2017-Oct-16 13:29N 59°35' E 024°49'0 0.0
2017-Oct-16 12:59N 59°35' E 024°49'0 0.0
2017-Oct-16 12:29N 59°35' E 024°49'0 0.1
2017-Oct-16 11:59N 59°35' E 024°49'0 0.0
2017-Oct-16 11:29N 59°35' E 024°49'0 0.0
2017-Oct-16 10:59N 59°35' E 024°49'0 0.0
2017-Oct-16 10:29N 59°35' E 024°49'0 0.0
2017-Oct-16 09:59N 59°35' E 024°49'0 0.0
2017-Oct-16 09:29N 59°35' E 024°49'0 0.0
2017-Oct-16 08:59N 59°35' E 024°49'0 0.1
2017-Oct-16 08:29N 59°35' E 024°49'0 0.0
2017-Oct-16 07:59N 59°35' E 024°49'0 0.0
2017-Oct-16 07:29N 59°35' E 024°49'0 0.0
2017-Oct-16 06:56N 59°35' E 024°49'0 0.0
2017-Oct-16 06:29N 59°35' E 024°49'0 0.0
2017-Oct-16 05:59N 59°35' E 024°49'0 0.0
2017-Oct-16 05:29N 59°35' E 024°49'0 0.0
2017-Oct-16 04:59N 59°35' E 024°49'0 0.0
2017-Oct-16 04:29N 59°35' E 024°49'0 0.0
2017-Oct-16 03:56N 59°35' E 024°49'0 0.0
2017-Oct-16 03:29N 59°35' E 024°49'0 0.0
2017-Oct-16 02:59N 59°35' E 024°49'0 0.1
2017-Oct-16 02:29N 59°35' E 024°49'0 0.0
2017-Oct-16 01:59N 59°35' E 024°49'0 0.0
2017-Oct-16 01:29N 59°35' E 024°49'0 0.1
2017-Oct-16 00:59N 59°35' E 024°49'0 0.0
2017-Oct-16 00:29N 59°35' E 024°49'0 0.1
2017-Oct-15 23:59N 59°35' E 024°49'0 0.0
2017-Oct-15 23:29N 59°35' E 024°49'0 0.0
2017-Oct-15 22:56N 59°35' E 024°49'0 0.0
2017-Oct-15 22:29N 59°35' E 024°49'0 0.0
2017-Oct-15 21:59N 59°35' E 024°49'0 0.0
2017-Oct-15 21:29N 59°35' E 024°49'0 0.0
2017-Oct-15 20:59N 59°35' E 024°49'0 0.0
2017-Oct-15 20:26N 59°35' E 024°49'0 0.1
2017-Oct-15 20:00N 59°35' E 024°49'0 0.0
2017-Oct-15 19:29N 59°35' E 024°49'0 0.1
2017-Oct-15 18:59N 59°35' E 024°49'0 0.0
2017-Oct-15 18:29N 59°35' E 024°49'0 0.0
2017-Oct-15 17:59N 59°35' E 024°49'0 0.1
2017-Oct-15 17:26N 59°35' E 024°49'0 0.1
2017-Oct-15 16:59N 59°35' E 024°49'0 0.1
2017-Oct-15 16:29N 59°35' E 024°49'0 0.1
2017-Oct-15 15:59N 59°35' E 024°49'0 0.0
2017-Oct-15 15:29N 59°35' E 024°49'0 0.0
2017-Oct-15 14:59N 59°35' E 024°49'0 0.0
2017-Oct-15 13:59N 59°35' E 024°49'0 0.0
2017-Oct-15 13:29N 59°35' E 024°49'0 0.0
2017-Oct-15 12:59N 59°35' E 024°49'0 0.0
2017-Oct-15 12:29N 59°35' E 024°49'0 0.1
2017-Oct-15 11:59N 59°35' E 024°49'0 0.1
2017-Oct-15 11:29N 59°35' E 024°49'0 0.0
2017-Oct-15 10:59N 59°35' E 024°49'0 0.0
2017-Oct-15 10:29N 59°35' E 024°49'0 0.0
2017-Oct-15 09:59N 59°35' E 024°49'0 0.0
2017-Oct-15 09:29N 59°35' E 024°49'0 0.0
2017-Oct-15 08:59N 59°35' E 024°49'0 0.0
2017-Oct-15 08:29N 59°35' E 024°49'0 0.0
2017-Oct-15 07:59N 59°35' E 024°49'0 0.1
2017-Oct-15 07:29N 59°35' E 024°49'0 0.0
2017-Oct-15 06:59N 59°35' E 024°49'0 0.0
2017-Oct-15 06:29N 59°35' E 024°49'0 0.0
2017-Oct-15 05:59N 59°35' E 024°49'0 0.1
2017-Oct-15 05:29N 59°35' E 024°49'0 0.0
2017-Oct-15 04:59N 59°35' E 024°49'0 0.0
2017-Oct-15 04:29N 59°35' E 024°49'0 0.0
2017-Oct-15 03:59N 59°35' E 024°49'0 0.0
2017-Oct-15 03:29N 59°35' E 024°49'0 0.0
2017-Oct-15 02:59N 59°35' E 024°49'0 0.0
2017-Oct-15 02:29N 59°35' E 024°49'0 0.0
2017-Oct-15 01:59N 59°35' E 024°49'0 0.0
2017-Oct-15 01:29N 59°35' E 024°49'0 0.0
2017-Oct-15 00:59N 59°35' E 024°49'0 0.1
2017-Oct-15 00:29N 59°35' E 024°49'0 0.0
2017-Oct-14 23:59N 59°35' E 024°49'0 0.1
2017-Oct-14 23:29N 59°35' E 024°49'0 0.1
2017-Oct-14 22:59N 59°35' E 024°49'0 0.1
2017-Oct-14 22:29N 59°35' E 024°49'0 0.0
2017-Oct-14 21:59N 59°35' E 024°49'0 0.0
2017-Oct-14 21:29N 59°35' E 024°49'0 0.1
2017-Oct-14 20:59N 59°35' E 024°49'0 0.2
2017-Oct-14 20:29N 59°35' E 024°49'0 0.1
2017-Oct-14 19:59N 59°35' E 024°49'0 0.1
2017-Oct-14 19:29N 59°35' E 024°49'0 0.0
2017-Oct-14 18:59N 59°35' E 024°49'0 0.1
2017-Oct-14 18:29N 59°35' E 024°49'0 0.1
2017-Oct-14 17:59N 59°35' E 024°49'0 0.3
2017-Oct-14 17:29N 59°35' E 024°49'0 0.1
2017-Oct-14 16:59N 59°35' E 024°49'0 0.0
2017-Oct-14 16:26N 59°35' E 024°49'0 0.0
2017-Oct-14 15:59N 59°35' E 024°49'0 0.0
2017-Oct-14 15:29N 59°35' E 024°49'0 0.1
2017-Oct-14 14:59N 59°35' E 024°49'0 0.0
2017-Oct-14 14:29N 59°35' E 024°49'0 0.0
2017-Oct-14 13:59N 59°35' E 024°49'0 0.0
2017-Oct-14 13:29N 59°35' E 024°49'0 0.0
2017-Oct-14 12:59N 59°35' E 024°49'0 0.0
2017-Oct-14 12:29N 59°35' E 024°49'0 0.0
2017-Oct-14 11:59N 59°35' E 024°49'0 0.0
2017-Oct-14 11:29N 59°35' E 024°49'0 0.0
2017-Oct-14 10:59N 59°35' E 024°49'0 0.0
2017-Oct-14 10:26N 59°35' E 024°49'0 0.0
2017-Oct-14 09:59N 59°35' E 024°49'0 0.0
2017-Oct-14 09:29N 59°35' E 024°49'0 0.0
2017-Oct-14 08:59N 59°35' E 024°49'0 0.0
2017-Oct-14 08:29N 59°35' E 024°49'0 0.0
2017-Oct-14 07:59N 59°35' E 024°49'0 0.0
2017-Oct-14 07:29N 59°35' E 024°49'0 0.0
2017-Oct-14 06:59N 59°35' E 024°49'0 0.0
2017-Oct-14 06:29N 59°35' E 024°49'0 0.1
2017-Oct-14 05:59N 59°35' E 024°49'0 0.2
2017-Oct-14 05:29N 59°35' E 024°49'0 0.1
2017-Oct-14 04:59N 59°35' E 024°49'0 0.0
2017-Oct-14 04:29N 59°35' E 024°49'0 0.1
2017-Oct-14 03:59N 59°35' E 024°49'0 0.0
2017-Oct-14 03:29N 59°35' E 024°49'0 0.0
2017-Oct-14 02:59N 59°35' E 024°49'0 0.0
2017-Oct-14 02:29N 59°35' E 024°49'0 0.0
2017-Oct-14 01:59N 59°35' E 024°49'0 0.0
2017-Oct-14 01:29N 59°35' E 024°49'0 0.1
2017-Oct-14 00:59N 59°35' E 024°49'0 0.0
2017-Oct-14 00:29N 59°35' E 024°49'0 0.0
2017-Oct-13 23:59N 59°35' E 024°49'0 0.0
2017-Oct-13 23:29N 59°35' E 024°49'0 0.0
2017-Oct-13 22:59N 59°35' E 024°49'0 0.0
2017-Oct-13 22:29N 59°35' E 024°49'0 0.0
2017-Oct-13 21:59N 59°35' E 024°49'0 0.0
2017-Oct-13 21:29N 59°35' E 024°49'0 0.3
2017-Oct-13 21:00N 59°35' E 024°49'1 2.0
2017-Oct-13 20:30N 59°35' E 024°51'3 5.0
2017-Oct-13 20:00N 59°38' E 024°48'510.4
2017-Oct-13 19:31N 59°42' E 024°42'510.6
2017-Oct-13 19:00N 59°44' E 024°32'611.4
2017-Oct-13 18:30N 59°43' E 024°21'611.4
2017-Oct-13 18:00N 59°41' E 024°10'611.3
2017-Oct-13 17:30N 59°39' E 023°60'611.5
2017-Oct-13 17:00N 59°37' E 023°49'611.3
2017-Oct-13 16:30N 59°35' E 023°38'611.2
2017-Oct-13 16:00N 59°34' E 023°28'510.9
2017-Oct-13 15:30N 59°32' E 023°18'  
Track history (hours):
 
Tides and Currents Weather Stations Pressure Air Temp Water Temp Dewpoint Dewpoint Depression Visibility Wind Speed Wind Dir Waves Ship Positions

Scf Baltica

Last reported at 2017-Oct-17 07:31 UTC. Time now 2017-Oct-17 07:53 UTC.
Position N 60°03' E 028°27'.

Length 250 m; draft 9 m.

Type: Ship. MMSI: 636012813.

Date/timePositionNaut miles runAvg speedWind from/ knotsBaromVisibWave heightAir tempDewpointWater temp
2017-Oct-17 07:31N 60°03' E 028°27'4 7.8
2017-Oct-17 07:00N 60°05' E 028°20'5 9.4
2017-Oct-17 06:31N 60°08' E 028°12'5 9.7
2017-Oct-17 06:00N 60°09' E 028°03'5 9.8
2017-Oct-17 05:30N 60°10' E 027°53'4 8.9
2017-Oct-17 05:00N 60°10' E 027°44'5 9.4
2017-Oct-17 04:30N 60°08' E 027°36'5 9.3
2017-Oct-17 04:01N 60°05' E 027°28'5 9.3
2017-Oct-17 03:30N 60°03' E 027°20'5 9.4
2017-Oct-17 03:00N 60°00' E 027°12'5 9.2
2017-Oct-17 02:30N 59°58' E 027°04'4 8.9
2017-Oct-17 02:00N 59°58' E 026°55'5 9.4
2017-Oct-17 01:30N 59°59' E 026°46'5 9.1
2017-Oct-17 01:01N 59°59' E 026°37'5 9.2
2017-Oct-17 00:31N 59°58' E 026°28'5 9.2
2017-Oct-17 00:00N 59°57' E 026°19'35 9.3
2017-Oct-16 20:16N 59°48' E 025°12'3 9.5
2017-Oct-16 20:00N 59°48' E 025°07'4 9.1
2017-Oct-16 19:30N 59°46' E 024°59'5 9.1
2017-Oct-16 19:01N 59°43' E 024°52'4 8.7
2017-Oct-16 18:31N 59°39' E 024°49'4 7.2
2017-Oct-16 18:00N 59°35' E 024°49'0 0.8
2017-Oct-16 17:29N 59°35' E 024°49'0 0.1
2017-Oct-16 16:59N 59°35' E 024°49'0 0.1
2017-Oct-16 16:29N 59°35' E 024°49'0 0.1
2017-Oct-16 15:59N 59°35' E 024°49'0 0.1
2017-Oct-16 15:29N 59°35' E 024°49'0 0.0
2017-Oct-16 14:59N 59°35' E 024°49'0 0.0
2017-Oct-16 13:59N 59°35' E 024°49'0 0.0
2017-Oct-16 13:29N 59°35' E 024°49'0 0.0
2017-Oct-16 12:59N 59°35' E 024°49'0 0.0
2017-Oct-16 12:29N 59°35' E 024°49'0 0.1
2017-Oct-16 11:59N 59°35' E 024°49'0 0.0
2017-Oct-16 11:29N 59°35' E 024°49'0 0.0
2017-Oct-16 10:59N 59°35' E 024°49'0 0.0
2017-Oct-16 10:29N 59°35' E 024°49'0 0.0
2017-Oct-16 09:59N 59°35' E 024°49'0 0.0
2017-Oct-16 09:29N 59°35' E 024°49'0 0.0
2017-Oct-16 08:59N 59°35' E 024°49'0 0.1
2017-Oct-16 08:29N 59°35' E 024°49'0 0.0
2017-Oct-16 07:59N 59°35' E 024°49'0 0.0
2017-Oct-16 07:29N 59°35' E 024°49'0 0.0
2017-Oct-16 06:56N 59°35' E 024°49'0 0.0
2017-Oct-16 06:29N 59°35' E 024°49'0 0.0
2017-Oct-16 05:59N 59°35' E 024°49'0 0.0
2017-Oct-16 05:29N 59°35' E 024°49'0 0.0
2017-Oct-16 04:59N 59°35' E 024°49'0 0.0
2017-Oct-16 04:29N 59°35' E 024°49'0 0.0
2017-Oct-16 03:56N 59°35' E 024°49'0 0.0
2017-Oct-16 03:29N 59°35' E 024°49'0 0.0
2017-Oct-16 02:59N 59°35' E 024°49'0 0.1
2017-Oct-16 02:29N 59°35' E 024°49'0 0.0
2017-Oct-16 01:59N 59°35' E 024°49'0 0.0
2017-Oct-16 01:29N 59°35' E 024°49'0 0.1
2017-Oct-16 00:59N 59°35' E 024°49'0 0.0
2017-Oct-16 00:29N 59°35' E 024°49'0 0.1
2017-Oct-15 23:59N 59°35' E 024°49'0 0.0
2017-Oct-15 23:29N 59°35' E 024°49'0 0.0
2017-Oct-15 22:56N 59°35' E 024°49'0 0.0
2017-Oct-15 22:29N 59°35' E 024°49'0 0.0
2017-Oct-15 21:59N 59°35' E 024°49'0 0.0
2017-Oct-15 21:29N 59°35' E 024°49'0 0.0
2017-Oct-15 20:59N 59°35' E 024°49'0 0.0
2017-Oct-15 20:26N 59°35' E 024°49'0 0.1
2017-Oct-15 20:00N 59°35' E 024°49'0 0.0
2017-Oct-15 19:29N 59°35' E 024°49'0 0.1
2017-Oct-15 18:59N 59°35' E 024°49'0 0.0
2017-Oct-15 18:29N 59°35' E 024°49'0 0.0
2017-Oct-15 17:59N 59°35' E 024°49'0 0.1
2017-Oct-15 17:26N 59°35' E 024°49'0 0.1
2017-Oct-15 16:59N 59°35' E 024°49'0 0.1
2017-Oct-15 16:29N 59°35' E 024°49'0 0.1
2017-Oct-15 15:59N 59°35' E 024°49'0 0.0
2017-Oct-15 15:29N 59°35' E 024°49'0 0.0
2017-Oct-15 14:59N 59°35' E 024°49'0 0.0
2017-Oct-15 13:59N 59°35' E 024°49'0 0.0
2017-Oct-15 13:29N 59°35' E 024°49'0 0.0
2017-Oct-15 12:59N 59°35' E 024°49'0 0.0
2017-Oct-15 12:29N 59°35' E 024°49'0 0.1
2017-Oct-15 11:59N 59°35' E 024°49'0 0.1
2017-Oct-15 11:29N 59°35' E 024°49'0 0.0
2017-Oct-15 10:59N 59°35' E 024°49'0 0.0
2017-Oct-15 10:29N 59°35' E 024°49'0 0.0
2017-Oct-15 09:59N 59°35' E 024°49'0 0.0
2017-Oct-15 09:29N 59°35' E 024°49'0 0.0
2017-Oct-15 08:59N 59°35' E 024°49'0 0.0
2017-Oct-15 08:29N 59°35' E 024°49'0 0.0
2017-Oct-15 07:59N 59°35' E 024°49'0 0.1
2017-Oct-15 07:29N 59°35' E 024°49'0 0.0
2017-Oct-15 06:59N 59°35' E 024°49'0 0.0
2017-Oct-15 06:29N 59°35' E 024°49'0 0.0
2017-Oct-15 05:59N 59°35' E 024°49'0 0.1
2017-Oct-15 05:29N 59°35' E 024°49'0 0.0
2017-Oct-15 04:59N 59°35' E 024°49'0 0.0
2017-Oct-15 04:29N 59°35' E 024°49'0 0.0
2017-Oct-15 03:59N 59°35' E 024°49'0 0.0
2017-Oct-15 03:29N 59°35' E 024°49'0 0.0
2017-Oct-15 02:59N 59°35' E 024°49'0 0.0
2017-Oct-15 02:29N 59°35' E 024°49'0 0.0
2017-Oct-15 01:59N 59°35' E 024°49'0 0.0
2017-Oct-15 01:29N 59°35' E 024°49'0 0.0
2017-Oct-15 00:59N 59°35' E 024°49'0 0.1
2017-Oct-15 00:29N 59°35' E 024°49'0 0.0
2017-Oct-14 23:59N 59°35' E 024°49'0 0.1
2017-Oct-14 23:29N 59°35' E 024°49'0 0.1
2017-Oct-14 22:59N 59°35' E 024°49'0 0.1
2017-Oct-14 22:29N 59°35' E 024°49'0 0.0
2017-Oct-14 21:59N 59°35' E 024°49'0 0.0
2017-Oct-14 21:29N 59°35' E 024°49'0 0.1
2017-Oct-14 20:59N 59°35' E 024°49'0 0.2
2017-Oct-14 20:29N 59°35' E 024°49'0 0.1
2017-Oct-14 19:59N 59°35' E 024°49'0 0.1
2017-Oct-14 19:29N 59°35' E 024°49'0 0.0
2017-Oct-14 18:59N 59°35' E 024°49'0 0.1
2017-Oct-14 18:29N 59°35' E 024°49'0 0.1
2017-Oct-14 17:59N 59°35' E 024°49'0 0.3
2017-Oct-14 17:29N 59°35' E 024°49'0 0.1
2017-Oct-14 16:59N 59°35' E 024°49'0 0.0
2017-Oct-14 16:26N 59°35' E 024°49'0 0.0
2017-Oct-14 15:59N 59°35' E 024°49'0 0.0
2017-Oct-14 15:29N 59°35' E 024°49'0 0.1
2017-Oct-14 14:59N 59°35' E 024°49'0 0.0
2017-Oct-14 14:29N 59°35' E 024°49'0 0.0
2017-Oct-14 13:59N 59°35' E 024°49'0 0.0
2017-Oct-14 13:29N 59°35' E 024°49'0 0.0
2017-Oct-14 12:59N 59°35' E 024°49'0 0.0
2017-Oct-14 12:29N 59°35' E 024°49'0 0.0
2017-Oct-14 11:59N 59°35' E 024°49'0 0.0
2017-Oct-14 11:29N 59°35' E 024°49'0 0.0
2017-Oct-14 10:59N 59°35' E 024°49'0 0.0
2017-Oct-14 10:26N 59°35' E 024°49'0 0.0
2017-Oct-14 09:59N 59°35' E 024°49'0 0.0
2017-Oct-14 09:29N 59°35' E 024°49'0 0.0
2017-Oct-14 08:59N 59°35' E 024°49'0 0.0
2017-Oct-14 08:29N 59°35' E 024°49'0 0.0
2017-Oct-14 07:59N 59°35' E 024°49'0 0.0
2017-Oct-14 07:29N 59°35' E 024°49'0 0.0
2017-Oct-14 06:59N 59°35' E 024°49'0 0.0
2017-Oct-14 06:29N 59°35' E 024°49'0 0.1
2017-Oct-14 05:59N 59°35' E 024°49'0 0.2
2017-Oct-14 05:29N 59°35' E 024°49'0 0.1
2017-Oct-14 04:59N 59°35' E 024°49'0 0.0
2017-Oct-14 04:29N 59°35' E 024°49'0 0.1
2017-Oct-14 03:59N 59°35' E 024°49'0 0.0
2017-Oct-14 03:29N 59°35' E 024°49'0 0.0
2017-Oct-14 02:59N 59°35' E 024°49'0 0.0
2017-Oct-14 02:29N 59°35' E 024°49'0 0.0
2017-Oct-14 01:59N 59°35' E 024°49'0 0.0
2017-Oct-14 01:29N 59°35' E 024°49'0 0.1
2017-Oct-14 00:59N 59°35' E 024°49'0 0.0
2017-Oct-14 00:29N 59°35' E 024°49'0 0.0
2017-Oct-13 23:59N 59°35' E 024°49'0 0.0
2017-Oct-13 23:29N 59°35' E 024°49'0 0.0
2017-Oct-13 22:59N 59°35' E 024°49'0 0.0
2017-Oct-13 22:29N 59°35' E 024°49'0 0.0
2017-Oct-13 21:59N 59°35' E 024°49'0 0.0
2017-Oct-13 21:29N 59°35' E 024°49'0 0.3
2017-Oct-13 21:00N 59°35' E 024°49'1 2.0
2017-Oct-13 20:30N 59°35' E 024°51'3 5.0
2017-Oct-13 20:00N 59°38' E 024°48'510.4
2017-Oct-13 19:31N 59°42' E 024°42'510.6
2017-Oct-13 19:00N 59°44' E 024°32'611.4
2017-Oct-13 18:30N 59°43' E 024°21'611.4
2017-Oct-13 18:00N 59°41' E 024°10'611.3
2017-Oct-13 17:30N 59°39' E 023°60'611.5
2017-Oct-13 17:00N 59°37' E 023°49'611.3
2017-Oct-13 16:30N 59°35' E 023°38'611.2
2017-Oct-13 16:00N 59°34' E 023°28'510.9
2017-Oct-13 15:30N 59°32' E 023°18'  

Dump ship's entire track history